Beulah, North Dakota
Current Conditions -  °F | °C
As of 2:55 AM on Friday 28 Nov 2014 (Local Time) from KHZE Reporting Station
Light Snow Light Snow  
Wind Chill: -2°   Ceiling: 400
Heat Index: 10°   Visibility: 4mi
Dew Point:   Wind: 8mph
Humidity: 92%   Direction: 120°ESE
Pressure: 29.8"   Gusts: NA
Location:  47.26°N, 101.78°W
Report Text: KHZE 280955Z AUTO 12007KT 4SM -SN BKN004 OVC050 M12/M13 A2980 RMK AO2
Loading
Personal Weather Stations






























Interactive Weather Map New forecast layout! Learn more

10-Day Weather Forecast

Advertisements
Track Severe Weather on mobile